Time;durP1;ratioP1;P1;durP2;ratioP2;P2;SDS_P1;SDS_P2;PMS_P1;PMS_P2;Temp;Humidity;BMP_temperature;BMP_pressure;BME280_temperature;BME280_humidity;BME280_pressure;Samples;Min_cycle;Max_cycle;Signal;HPM_P1;HPM_P2
2022/03/25 00:01:16;;;;;;;4.30;3.90;;;;;;;17.22;43.08;99744.91;1782507;79;21514;-64
2022/03/25 00:03:43;;;;;;;4.83;4.33;;;;;;;17.21;43.09;99742.42;1783662;79;21526;-64
2022/03/25 00:06:09;;;;;;;4.83;4.25;;;;;;;17.20;43.07;99742.95;1814508;78;21018;-64
2022/03/25 00:08:36;;;;;;;4.65;4.22;;;;;;;17.20;43.10;99744.81;1814641;78;21065;-64
2022/03/25 00:11:03;;;;;;;4.80;4.37;;;;;;;17.20;43.09;99752.87;1814477;79;21221;-64
2022/03/25 00:13:29;;;;;;;4.15;3.72;;;;;;;17.18;43.10;99749.58;1813480;79;21532;-64
2022/03/25 00:15:57;;;;;;;4.60;4.20;;;;;;;17.16;43.12;99749.78;1814567;79;20975;-63
2022/03/25 00:18:23;;;;;;;4.50;4.10;;;;;;;17.16;43.14;99748.44;1814401;78;21073;-63
2022/03/25 00:20:51;;;;;;;4.72;4.33;;;;;;;17.15;43.15;99745.95;1814526;78;20994;-64
2022/03/25 00:23:18;;;;;;;4.55;4.15;;;;;;;17.13;43.15;99754.21;1814445;78;21223;-64
2022/03/25 00:25:44;;;;;;;3.77;3.47;;;;;;;17.13;43.17;99757.42;1814492;78;20972;-63
2022/03/25 00:28:11;;;;;;;3.90;3.60;;;;;;;17.12;43.17;99755.27;1814583;78;20983;-64
2022/03/25 00:30:37;;;;;;;4.22;3.83;;;;;;;17.11;43.19;99760.31;1813369;79;21033;-64
2022/03/25 00:33:04;;;;;;;4.15;3.85;;;;;;;17.09;43.21;99755.18;1814514;79;21018;-64
2022/03/25 00:35:31;;;;;;;4.37;3.70;;;;;;;17.09;43.21;99761.04;1814530;79;21133;-64
2022/03/25 00:37:59;;;;;;;4.00;3.60;;;;;;;17.08;43.23;99760.75;1814506;78;20990;-63
2022/03/25 00:40:25;;;;;;;4.15;3.75;;;;;;;17.07;43.22;99758.59;1814387;79;21546;-64
2022/03/25 00:42:53;;;;;;;4.70;4.20;;;;;;;17.06;43.25;99758.80;1814507;79;20971;-63
2022/03/25 00:45:21;;;;;;;4.15;3.75;;;;;;;17.06;43.25;99763.64;1811904;78;21060;-64
2022/03/25 00:47:47;;;;;;;3.55;3.25;;;;;;;17.03;43.24;99760.02;1798051;77;21231;-64
2022/03/25 00:50:16;;;;;;;4.30;3.70;;;;;;;17.03;43.26;99756.52;1793512;79;20990;-64
2022/03/25 00:52:44;;;;;;;3.62;3.33;;;;;;;17.02;43.26;99763.75;1793515;79;20998;-64
2022/03/25 00:55:12;;;;;;;3.55;3.25;;;;;;;17.01;43.28;99770.14;1793448;79;21021;-64
2022/03/25 00:57:40;;;;;;;4.50;4.10;;;;;;;17.01;43.29;99778.19;1793583;79;21525;-64
2022/03/25 01:01:46;;;;;;;3.75;3.45;;;;;;;17.03;43.31;99782.83;1854334;77;22561;-64
2022/03/25 01:04:13;;;;;;;3.55;3.25;;;;;;;16.99;43.29;99789.66;1821932;77;21024;-64
2022/03/25 01:06:42;;;;;;;3.98;3.67;;;;;;;16.97;43.30;99780.98;1829945;78;21000;-64
2022/03/25 01:09:09;;;;;;;3.85;3.55;;;;;;;16.98;43.33;99789.86;1829988;78;20944;-63
2022/03/25 01:11:36;;;;;;;3.37;3.10;;;;;;;16.97;43.34;99796.27;1829958;78;20965;-64
2022/03/25 01:14:04;;;;;;;3.55;3.25;;;;;;;16.96;43.34;99796.80;1830062;78;20984;-64
2022/03/25 01:16:30;;;;;;;3.62;3.33;;;;;;;16.95;43.36;99793.79;1829950;78;21012;-64
2022/03/25 01:18:59;;;;;;;3.77;3.47;;;;;;;16.94;43.37;99793.50;1830133;78;21798;-63
2022/03/25 01:21:26;;;;;;;4.28;3.70;;;;;;;16.93;43.36;99797.20;1810933;78;20969;-64
2022/03/25 01:23:56;;;;;;;3.40;3.10;;;;;;;16.92;43.38;99793.38;1797675;79;21538;-63
2022/03/25 01:26:23;;;;;;;4.28;3.90;;;;;;;16.91;43.39;99799.27;1797599;79;21050;-64
2022/03/25 01:28:50;;;;;;;3.87;3.55;;;;;;;16.91;43.39;99801.95;1797590;79;21037;-64
2022/03/25 01:31:17;;;;;;;4.10;3.80;;;;;;;16.90;43.41;99813.21;1764433;79;21875;-64
2022/03/25 01:33:44;;;;;;;3.35;3.05;;;;;;;16.89;43.42;99810.73;1797412;79;21049;-63
2022/03/25 01:36:10;;;;;;;3.60;3.30;;;;;;;16.88;43.43;99821.14;1797508;79;21049;-65
2022/03/25 01:38:39;;;;;;;3.80;3.50;;;;;;;16.87;43.42;99821.66;1798612;78;21050;-64
2022/03/25 01:41:07;;;;;;;4.25;3.85;;;;;;;16.87;43.44;99827.55;1764402;79;21049;-63
2022/03/25 01:43:34;;;;;;;4.05;3.65;;;;;;;16.86;43.43;99833.45;1797462;79;21230;-64
2022/03/25 01:46:01;;;;;;;3.87;3.58;;;;;;;16.86;43.45;99840.64;1803844;78;21039;-63
2022/03/25 01:48:29;;;;;;;3.52;3.22;;;;;;;16.85;43.47;99855.92;1830120;77;21003;-63
2022/03/25 01:50:56;;;;;;;3.22;2.92;;;;;;;16.84;43.50;99860.15;1829870;78;21589;-64
2022/03/25 01:53:24;;;;;;;4.08;3.50;;;;;;;16.83;43.48;99859.86;1829754;78;21061;-64
2022/03/25 01:55:57;;;;;;;3.75;3.42;;;;;;;16.83;43.50;99862.54;1804845;77;21228;-62
2022/03/25 01:58:29;;;;;;;3.60;3.30;;;;;;;16.81;43.51;99869.41;1797780;79;21042;-64
2022/03/25 02:00:56;;;;;;;3.77;3.37;;;;;;;16.81;43.50;99877.47;1796480;79;21078;-65
2022/03/25 02:03:24;;;;;;;3.98;3.62;;;;;;;16.79;43.53;99873.34;1795480;78;21024;-64
2022/03/25 02:05:51;;;;;;;3.70;3.40;;;;;;;16.78;43.53;99874.36;1795743;80;21004;-63
2022/03/25 02:08:18;;;;;;;3.77;3.47;;;;;;;16.78;43.52;99883.75;1795556;80;21263;-64
2022/03/25 02:10:45;;;;;;;3.60;3.30;;;;;;;16.77;43.54;99887.48;1795629;79;21042;-63
2022/03/25 02:13:12;;;;;;;3.52;3.22;;;;;;;16.76;43.55;99891.18;1795697;78;21551;-64
2022/03/25 02:15:44;;;;;;;3.50;3.20;;;;;;;16.75;43.55;99897.07;1795077;80;21468;-63
2022/03/25 02:18:14;;;;;;;3.62;3.33;;;;;;;16.75;43.56;99898.94;1795283;80;21030;-65
2022/03/25 02:20:42;;;;;;;3.62;3.30;;;;;;;16.75;43.56;99900.27;1795040;80;21231;-64
2022/03/25 02:23:11;;;;;;;3.85;3.55;;;;;;;16.73;43.58;99900.47;1795028;80;20996;-65
2022/03/25 02:25:40;;;;;;;3.50;3.20;;;;;;;16.73;43.59;99902.30;1795041;80;21019;-64
2022/03/25 02:28:08;;;;;;;3.87;3.58;;;;;;;16.72;43.61;99909.53;1796052;78;21071;-64
2022/03/25 02:30:37;;;;;;;3.22;2.92;;;;;;;16.71;43.61;99915.42;1795167;80;21047;-63
2022/03/25 02:33:06;;;;;;;4.00;3.65;;;;;;;16.70;43.63;99917.78;1795106;79;21050;-64
2022/03/25 02:35:43;;;;;;;4.05;3.65;;;;;;;16.70;43.63;99918.30;1794905;80;21611;-63
2022/03/25 02:38:16;;;;;;;3.87;3.40;;;;;;;16.69;43.64;99916.67;1794976;80;21019;-64
2022/03/25 02:40:44;;;;;;;3.60;3.30;;;;;;;16.67;43.64;99928.94;1794986;80;21094;-64
2022/03/25 02:43:11;;;;;;;3.62;3.33;;;;;;;16.67;43.65;99928.12;1795101;80;21055;-64
2022/03/25 02:45:41;;;;;;;3.60;3.30;;;;;;;16.66;43.68;99932.63;1796135;77;20973;-64
2022/03/25 02:48:08;;;;;;;4.03;3.72;;;;;;;16.65;43.72;99939.05;1794843;79;21011;-64
2022/03/25 02:50:35;;;;;;;3.70;3.35;;;;;;;16.65;43.71;99940.87;1795108;79;21000;-64
2022/03/25 02:53:02;;;;;;;4.53;3.45;;;;;;;16.64;43.70;99950.78;1794998;80;21110;-65
2022/03/25 02:55:29;;;;;;;4.00;3.58;;;;;;;16.64;43.72;99949.45;1794902;79;21073;-64
2022/03/25 02:57:55;;;;;;;3.90;3.60;;;;;;;16.63;43.73;99949.64;1819203;78;21231;-64
2022/03/25 03:00:25;;;;;;;4.95;3.80;;;;;;;16.63;43.73;99957.69;1828090;78;21104;-64
2022/03/25 03:02:53;;;;;;;4.08;3.47;;;;;;;16.62;43.73;99960.89;1820853;78;21042;-64
2022/03/25 03:05:20;;;;;;;4.58;4.12;;;;;;;16.61;43.75;99963.28;1799685;79;21108;-64
2022/03/25 03:07:49;;;;;;;4.45;4.05;;;;;;;16.61;43.76;99967.30;1799863;79;21129;-64
2022/03/25 03:10:16;;;;;;;4.35;4.00;;;;;;;16.60;43.77;99966.16;1799701;79;21233;-64
2022/03/25 03:12:44;;;;;;;4.83;4.42;;;;;;;16.59;43.77;99970.70;1799758;79;21081;-64
2022/03/25 03:15:12;;;;;;;4.45;4.05;;;;;;;16.59;43.79;99972.05;1799840;78;21509;-64
2022/03/25 03:17:39;;;;;;;4.35;3.95;;;;;;;16.60;43.79;99972.86;1799835;79;21030;-64
2022/03/25 03:20:08;;;;;;;3.85;3.55;;;;;;;16.57;43.82;99970.05;1800768;78;21065;-64
2022/03/25 03:22:36;;;;;;;4.17;3.83;;;;;;;16.58;43.80;99976.27;1799812;79;21076;-64
2022/03/25 03:25:04;;;;;;;4.62;4.22;;;;;;;16.56;43.81;99979.66;1799642;79;20998;-64
2022/03/25 03:27:32;;;;;;;4.30;3.90;;;;;;;16.56;43.85;99987.19;1799561;79;21026;-64
2022/03/25 03:29:59;;;;;;;4.67;4.28;;;;;;;16.55;43.84;99988.20;1799753;79;21049;-64
2022/03/25 03:32:27;;;;;;;4.42;4.10;;;;;;;16.55;43.85;99988.72;1799708;79;21128;-63
2022/03/25 03:34:54;;;;;;;4.80;4.40;;;;;;;16.55;43.84;99996.77;1799884;79;21522;-63
2022/03/25 03:37:21;;;;;;;5.00;4.58;;;;;;;16.54;43.86;99998.63;1800666;78;21045;-63
2022/03/25 03:39:49;;;;;;;5.05;4.55;;;;;;;16.53;43.86;100000.98;1799802;79;21038;-63
2022/03/25 03:42:15;;;;;;;5.08;4.62;;;;;;;16.53;43.89;100008.20;1799595;79;21026;-65
2022/03/25 03:44:42;;;;;;;4.80;4.25;;;;;;;16.52;43.88;100012.75;1799758;79;21077;-63
2022/03/25 03:47:10;;;;;;;5.22;4.83;;;;;;;16.52;43.89;100018.12;1821466;78;21218;-64
2022/03/25 03:49:37;;;;;;;5.95;5.12;;;;;;;16.51;43.89;100017.30;1832391;78;21049;-64
2022/03/25 03:52:05;;;;;;;5.47;4.97;;;;;;;16.50;43.89;100025.02;1832424;78;21018;-63
2022/03/25 03:54:32;;;;;;;4.90;4.47;;;;;;;16.49;43.90;100023.34;1811467;78;21065;-64
2022/03/25 03:57:19;;;;;;;5.90;4.97;;;;;;;16.49;43.91;100024.69;1799929;79;21485;-63
2022/03/25 03:59:45;;;;;;;5.20;4.70;;;;;;;16.48;43.93;100023.57;1799876;79;21192;-64
2022/03/25 04:02:12;;;;;;;5.03;4.60;;;;;;;16.47;43.95;100032.11;1789998;79;21002;-64
2022/03/25 04:04:39;;;;;;;5.10;4.70;;;;;;;16.46;43.93;100033.67;1817405;79;21001;-64
2022/03/25 04:07:06;;;;;;;5.37;4.97;;;;;;;16.46;43.95;100036.35;1816517;79;21001;-65
2022/03/25 04:09:37;;;;;;;5.58;5.08;;;;;;;16.46;43.96;100040.37;1816459;79;21509;-63
2022/03/25 04:12:05;;;;;;;5.55;5.00;;;;;;;16.44;43.96;100048.61;1790557;79;21150;-64
2022/03/25 04:14:33;;;;;;;5.53;5.03;;;;;;;16.44;43.97;100057.18;1785863;80;21026;-64
2022/03/25 04:17:00;;;;;;;5.40;4.90;;;;;;;16.44;43.98;100067.91;1786097;80;21050;-64
2022/03/25 04:19:26;;;;;;;6.20;5.60;;;;;;;16.43;43.98;100067.57;1785882;80;21057;-64
2022/03/25 04:21:53;;;;;;;6.05;5.50;;;;;;;16.43;43.98;100069.73;1786131;79;21553;-64
2022/03/25 04:24:21;;;;;;;6.37;5.78;;;;;;;16.42;43.99;100071.30;1786011;80;21050;-64
2022/03/25 04:26:48;;;;;;;6.05;5.45;;;;;;;16.42;43.99;100075.32;1785874;80;21097;-65
2022/03/25 04:29:18;;;;;;;6.15;5.65;;;;;;;16.42;44.01;100080.16;1786947;79;21045;-64
2022/03/25 04:31:45;;;;;;;6.03;5.53;;;;;;;16.41;44.00;100079.83;1786225;80;20998;-64
2022/03/25 04:34:12;;;;;;;5.90;5.40;;;;;;;16.41;44.00;100087.05;1786089;80;21050;-64
2022/03/25 04:36:39;;;;;;;6.50;5.90;;;;;;;16.41;44.00;100091.08;1786028;80;21262;-64
2022/03/25 04:39:05;;;;;;;5.95;5.37;;;;;;;16.41;44.02;100100.46;1786009;80;21034;-64
2022/03/25 04:41:33;;;;;;;6.10;5.53;;;;;;;16.40;44.02;100105.00;1786039;80;21525;-64
2022/03/25 04:44:00;;;;;;;6.00;5.42;;;;;;;16.40;44.05;100110.37;1786415;79;21023;-64
2022/03/25 04:46:27;;;;;;;6.00;5.50;;;;;;;16.40;44.02;100112.20;1798375;79;21037;-63
2022/03/25 04:48:53;;;;;;;6.37;5.87;;;;;;;16.40;44.04;100116.22;1818332;79;21224;-64
2022/03/25 04:51:21;;;;;;;6.78;6.17;;;;;;;16.39;44.02;100126.13;1818095;79;21062;-65
2022/03/25 04:53:49;;;;;;;5.92;5.42;;;;;;;16.39;44.02;100123.45;1818353;79;21372;-65
2022/03/25 04:56:16;;;;;;;6.20;5.45;;;;;;;16.39;44.04;100127.98;1818193;79;21029;-64
2022/03/25 04:58:43;;;;;;;6.22;5.70;;;;;;;16.40;44.04;100126.95;1818228;79;21097;-63
2022/03/25 05:01:10;;;;;;;5.78;5.33;;;;;;;16.39;44.04;100135.51;1818160;78;21464;-64
2022/03/25 05:03:36;;;;;;;6.00;5.50;;;;;;;16.39;44.06;100138.19;1795041;80;21453;-64
2022/03/25 05:06:03;;;;;;;6.15;5.40;;;;;;;16.39;44.07;100139.53;1795186;80;21495;-63
2022/03/25 05:08:30;;;;;;;6.95;6.33;;;;;;;16.40;44.03;100139.02;1800320;78;21710;-64
2022/03/25 05:10:57;;;;;;;6.00;5.50;;;;;;;16.40;44.04;100140.35;1826645;78;21476;-64
2022/03/25 05:13:23;;;;;;;6.37;5.72;;;;;;;16.41;44.05;100146.05;1827663;78;21626;-64
2022/03/25 05:15:51;;;;;;;6.45;5.85;;;;;;;16.41;44.05;100154.09;1827447;77;21480;-65
2022/03/25 05:18:17;;;;;;;6.33;5.72;;;;;;;16.41;44.06;100156.25;1823497;77;21071;-64
2022/03/25 05:20:45;;;;;;;6.55;5.95;;;;;;;16.42;44.04;100161.94;1794862;79;21042;-64
2022/03/25 05:23:12;;;;;;;6.25;5.65;;;;;;;16.42;44.06;100165.97;1795043;80;20996;-63
2022/03/25 05:25:39;;;;;;;6.75;6.15;;;;;;;16.44;44.04;100171.14;1794957;80;21286;-65
2022/03/25 05:28:06;;;;;;;6.45;5.85;;;;;;;16.45;44.05;100178.14;1794972;80;21020;-64
2022/03/25 05:30:34;;;;;;;6.20;5.50;;;;;;;16.46;44.05;100185.17;1795032;80;22021;-64
2022/03/25 05:33:01;;;;;;;6.53;5.87;;;;;;;16.45;44.03;100189.69;1794984;80;21019;-64
2022/03/25 05:35:29;;;;;;;6.12;5.50;;;;;;;16.48;44.03;100197.88;1795974;78;21071;-63
2022/03/25 05:37:56;;;;;;;5.95;5.35;;;;;;;16.47;44.00;100197.55;1795041;80;21232;-64
2022/03/25 05:40:25;;;;;;;6.80;5.70;;;;;;;16.49;44.02;100202.20;1794811;79;20992;-64
2022/03/25 05:42:51;;;;;;;6.33;5.72;;;;;;;16.50;44.00;100208.71;1795023;80;21688;-65
2022/03/25 05:45:19;;;;;;;6.95;6.33;;;;;;;16.51;44.01;100209.05;1795038;80;20996;-64
2022/03/25 05:48:05;;;;;;;6.53;5.83;;;;;;;16.51;44.00;100210.88;1795102;80;21519;-64
2022/03/25 05:50:33;;;;;;;6.40;5.80;;;;;;;16.52;44.00;100219.25;1795002;80;21240;-63
2022/03/25 05:53:00;;;;;;;5.75;5.15;;;;;;;16.52;43.99;100223.27;1796402;78;21055;-65
2022/03/25 05:55:27;;;;;;;6.22;5.60;;;;;;;16.53;43.98;100227.59;1795128;80;21040;-64
2022/03/25 05:57:54;;;;;;;5.47;4.97;;;;;;;16.54;43.97;100229.27;1795102;80;21071;-65
2022/03/25 06:00:21;;;;;;;5.70;5.20;;;;;;;16.55;43.97;100229.57;1795098;80;20995;-65
2022/03/25 06:02:47;;;;;;;6.00;5.47;;;;;;;16.57;43.94;100230.72;1788292;79;21271;-64
2022/03/25 06:05:15;;;;;;;6.17;5.58;;;;;;;16.57;43.94;100234.22;1786115;80;20990;-63
2022/03/25 06:07:43;;;;;;;6.45;5.78;;;;;;;16.58;43.93;100241.27;1786290;80;21027;-63
2022/03/25 06:10:11;;;;;;;5.72;5.22;;;;;;;16.60;43.91;100247.26;1787149;79;21065;-64
2022/03/25 06:12:39;;;;;;;5.65;5.15;;;;;;;16.60;43.92;100241.08;1786183;80;21015;-64
2022/03/25 06:15:08;;;;;;;5.70;5.20;;;;;;;16.61;43.90;100247.59;1799083;79;21236;-64
2022/03/25 06:17:46;;;;;;;5.87;5.37;;;;;;;16.62;43.90;100255.94;1817672;79;21010;-63
2022/03/25 06:20:14;;;;;;;5.40;4.90;;;;;;;16.63;43.89;100252.25;1817680;79;21002;-64
2022/03/25 06:22:41;;;;;;;5.60;5.10;;;;;;;16.64;43.89;100250.38;1818289;79;21050;-64
2022/03/25 06:25:10;;;;;;;5.80;5.30;;;;;;;16.64;43.88;100251.20;1818433;79;21597;-65
2022/03/25 06:27:54;;;;;;;6.03;5.42;;;;;;;16.65;43.89;100251.53;1797074;77;21196;-64
2022/03/25 06:30:25;;;;;;;5.55;5.05;;;;;;;16.66;43.87;100259.06;1786032;80;21049;-64
2022/03/25 06:32:51;;;;;;;5.40;4.90;;;;;;;16.67;43.86;100256.19;1786092;80;21093;-63
2022/03/25 06:35:18;;;;;;;5.10;4.60;;;;;;;16.67;43.86;100253.52;1786065;80;21134;-64
2022/03/25 06:37:45;;;;;;;4.70;4.30;;;;;;;16.68;43.84;100260.52;1786199;80;21057;-64
2022/03/25 06:40:12;;;;;;;5.55;5.05;;;;;;;16.70;43.84;100254.96;1786116;80;21276;-64
2022/03/25 06:42:42;;;;;;;5.50;5.00;;;;;;;16.71;43.82;100261.48;1786079;80;21080;-64
2022/03/25 06:45:10;;;;;;;5.12;4.70;;;;;;;16.71;43.84;100260.14;1787524;78;20990;-63
2022/03/25 06:47:37;;;;;;;4.83;4.33;;;;;;;16.74;43.81;100268.82;1813517;79;21007;-63
2022/03/25 06:50:05;;;;;;;5.35;4.85;;;;;;;16.74;43.81;100263.45;1818451;79;21096;-65
2022/03/25 06:52:33;;;;;;;5.22;4.72;;;;;;;16.75;43.81;100269.15;1818532;78;21838;-63
2022/03/25 06:55:00;;;;;;;5.37;4.87;;;;;;;16.76;43.81;100276.16;1818217;79;21061;-64
2022/03/25 06:57:27;;;;;;;5.25;4.78;;;;;;;16.78;43.80;100276.79;1818314;78;21569;-63
2022/03/25 06:59:55;;;;;;;5.12;4.62;;;;;;;16.79;43.78;100274.44;1818288;79;21533;-64
2022/03/25 07:02:22;;;;;;;5.60;5.10;;;;;;;16.80;43.77;100274.73;1817943;79;21098;-64
2022/03/25 07:04:50;;;;;;;4.92;4.53;;;;;;;16.81;43.77;100274.55;1818235;77;21851;-63
2022/03/25 07:07:19;;;;;;;4.90;4.50;;;;;;;16.82;43.76;100282.11;1818160;77;21565;-64
2022/03/25 07:09:46;;;;;;;5.25;4.78;;;;;;;16.84;43.75;100286.77;1818272;79;21034;-63
2022/03/25 07:12:16;;;;;;;5.00;4.50;;;;;;;16.85;43.73;100285.23;1818483;78;21506;-63
2022/03/25 07:14:44;;;;;;;5.10;4.60;;;;;;;16.86;43.74;100290.94;1818569;79;21093;-65
2022/03/25 07:17:12;;;;;;;4.55;4.15;;;;;;;16.88;43.71;100292.05;1817111;79;21530;-64
2022/03/25 07:19:39;;;;;;;5.25;4.70;;;;;;;16.90;43.72;100288.66;1818205;79;20995;-64
2022/03/25 07:22:05;;;;;;;4.92;4.53;;;;;;;16.91;43.71;100294.36;1817439;79;21011;-65
2022/03/25 07:24:32;;;;;;;5.60;5.10;;;;;;;16.92;43.71;100293.34;1785968;80;21581;-64
2022/03/25 07:26:58;;;;;;;5.17;4.67;;;;;;;16.94;43.70;100291.78;1786415;80;21494;-65
2022/03/25 07:29:25;;;;;;;4.78;4.37;;;;;;;16.95;43.68;100299.64;1785945;79;22117;-65
2022/03/25 07:31:52;;;;;;;4.67;4.28;;;;;;;16.97;43.68;100304.30;1785966;80;21033;-64
2022/03/25 07:34:19;;;;;;;4.85;4.35;;;;;;;17.00;43.67;100305.27;1786974;79;21069;-65
2022/03/25 07:36:46;;;;;;;5.37;4.05;;;;;;;17.00;43.67;100303.92;1786050;80;21034;-64
2022/03/25 07:39:13;;;;;;;5.05;4.65;;;;;;;17.02;43.63;100306.41;1785988;80;21033;-64
2022/03/25 07:41:40;;;;;;;4.55;4.15;;;;;;;17.02;43.62;100301.87;1786213;80;21503;-64
2022/03/25 07:44:07;;;;;;;4.53;4.12;;;;;;;17.04;43.64;100305.70;1785974;80;21526;-64
2022/03/25 07:46:34;;;;;;;5.03;4.40;;;;;;;17.05;43.62;100306.83;1799383;79;21042;-64
2022/03/25 07:49:02;;;;;;;4.67;4.20;;;;;;;17.07;43.62;100303.45;1818197;79;21058;-64
2022/03/25 07:51:28;;;;;;;4.35;3.95;;;;;;;17.08;43.61;100312.33;1811731;79;21069;-65
2022/03/25 07:53:55;;;;;;;5.50;5.00;;;;;;;17.08;43.61;100311.81;1785978;80;21256;-64
2022/03/25 07:56:22;;;;;;;5.03;4.53;;;;;;;17.12;43.60;100319.48;1785988;80;21046;-64
2022/03/25 07:58:49;;;;;;;4.33;3.92;;;;;;;17.15;43.58;100327.12;1786163;80;21507;-64
2022/03/25 08:01:15;;;;;;;5.00;4.53;;;;;;;17.15;43.59;100320.41;1785970;80;21648;-64
2022/03/25 08:03:42;;;;;;;4.37;3.98;;;;;;;17.17;43.58;100323.73;1793954;80;21047;-65
2022/03/25 08:06:13;;;;;;;5.17;4.67;;;;;;;17.19;43.56;100325.70;1795064;79;21300;-65
2022/03/25 08:08:41;;;;;;;4.25;3.95;;;;;;;17.19;43.57;100321.67;1796290;78;21511;-64
2022/03/25 08:11:08;;;;;;;4.40;4.00;;;;;;;17.21;43.58;100322.30;1794939;79;21106;-65
2022/03/25 08:13:36;;;;;;;5.05;4.37;;;;;;;17.23;43.57;100324.28;1794945;79;21020;-65
2022/03/25 08:16:04;;;;;;;3.77;3.47;;;;;;;17.24;43.56;100324.09;1795037;79;21027;-64
2022/03/25 08:18:32;;;;;;;4.65;4.25;;;;;;;17.27;43.55;100332.28;1794922;80;21003;-64
2022/03/25 08:20:59;;;;;;;4.75;4.35;;;;;;;17.29;43.54;100333.73;1794976;80;20987;-64
2022/03/25 08:29:02;;;;;;;3.90;3.60;;;;;;;17.36;43.53;100336.44;1824207;78;21019;-64
2022/03/25 08:31:28;;;;;;;4.20;3.90;;;;;;;17.39;43.53;100339.27;1827489;78;21136;-64
2022/03/25 08:33:57;;;;;;;4.22;3.90;;;;;;;17.40;43.58;100337.73;1827504;77;20976;-65
2022/03/25 08:36:24;;;;;;;4.45;4.05;;;;;;;17.43;43.58;100339.18;1827563;78;21019;-64
2022/03/25 08:38:50;;;;;;;4.30;3.90;;;;;;;17.46;43.62;100346.33;1827519;78;21020;-64
2022/03/25 08:41:17;;;;;;;3.87;3.50;;;;;;;17.50;43.67;100345.42;1827475;78;20988;-64
2022/03/25 08:43:43;;;;;;;5.08;4.65;;;;;;;17.53;43.59;100349.04;1804323;78;21231;-64
2022/03/25 08:46:10;;;;;;;4.10;3.70;;;;;;;17.56;43.54;100348.66;1794937;78;21008;-64
2022/03/25 08:48:36;;;;;;;4.35;3.95;;;;;;;17.61;43.53;100344.02;1795048;79;21019;-64
2022/03/25 08:51:03;;;;;;;4.37;3.98;;;;;;;17.63;43.50;100355.39;1795034;80;21019;-64
2022/03/25 08:53:29;;;;;;;4.05;3.67;;;;;;;17.67;43.49;100351.27;1794962;80;21026;-64
2022/03/25 08:55:56;;;;;;;3.90;3.60;;;;;;;17.70;43.51;100352.23;1794891;80;21236;-64
2022/03/25 08:58:23;;;;;;;4.08;3.72;;;;;;;17.74;43.48;100356.69;1794832;80;20992;-65
2022/03/25 09:00:50;;;;;;;3.83;3.52;;;;;;;17.77;43.51;100355.78;1795741;78;21082;-64
2022/03/25 09:03:17;;;;;;;4.67;4.28;;;;;;;17.81;43.53;100357.03;1789502;79;21030;-63
2022/03/25 09:05:43;;;;;;;3.85;3.55;;;;;;;17.85;43.52;100351.59;1785981;80;21003;-64
2022/03/25 09:08:10;;;;;;;3.85;3.55;;;;;;;17.90;43.47;100356.88;1786081;80;21781;-63
2022/03/25 09:10:38;;;;;;;4.22;3.83;;;;;;;17.94;43.48;100347.38;1785886;80;21023;-65
2022/03/25 09:13:05;;;;;;;4.00;3.70;;;;;;;17.98;43.46;100352.66;1785951;80;20990;-64
2022/03/25 09:15:32;;;;;;;4.17;3.87;;;;;;;18.01;43.45;100349.06;1785861;80;21100;-65
2022/03/25 09:17:58;;;;;;;3.60;3.30;;;;;;;18.06;43.44;100348.47;1787133;79;21038;-64
2022/03/25 09:20:24;;;;;;;4.10;3.42;;;;;;;18.10;43.45;100349.72;1786001;80;21230;-64
2022/03/25 09:22:54;;;;;;;3.60;3.30;;;;;;;18.15;43.48;100351.80;1786075;80;21018;-63
2022/03/25 09:25:23;;;;;;;3.87;3.58;;;;;;;18.19;43.56;100351.17;1786042;80;21081;-64
2022/03/25 09:27:50;;;;;;;4.08;3.77;;;;;;;18.25;43.63;100356.25;1786191;80;21037;-64
2022/03/25 09:30:16;;;;;;;3.85;3.52;;;;;;;18.30;43.62;100358.35;1818235;79;21088;-65
2022/03/25 09:32:43;;;;;;;3.75;3.45;;;;;;;18.35;43.63;100358.06;1815130;79;21261;-65
2022/03/25 09:35:10;;;;;;;3.98;3.67;;;;;;;18.42;43.53;100352.67;1798333;79;21503;-65
2022/03/25 09:37:39;;;;;;;4.20;3.80;;;;;;;18.48;43.51;100353.19;1812006;79;21464;-65
2022/03/25 09:40:12;;;;;;;4.12;3.80;;;;;;;18.54;43.49;100359.09;1811766;78;21074;-64
2022/03/25 09:42:40;;;;;;;4.08;3.70;;;;;;;18.60;43.52;100355.61;1811805;79;21086;-64
2022/03/25 09:45:09;;;;;;;3.40;3.10;;;;;;;18.67;43.49;100357.77;1811773;79;21253;-64
2022/03/25 09:47:35;;;;;;;3.80;3.50;;;;;;;18.74;43.51;100355.61;1790161;79;21570;-65
2022/03/25 09:50:06;;;;;;;3.87;3.58;;;;;;;18.82;43.46;100354.91;1786933;79;21523;-65
2022/03/25 09:52:33;;;;;;;3.45;3.15;;;;;;;18.90;43.46;100351.70;1786402;80;21066;-65
2022/03/25 09:55:00;;;;;;;3.62;3.33;;;;;;;18.97;43.45;100361.44;1786124;80;21066;-64
2022/03/25 09:57:27;;;;;;;3.58;3.27;;;;;;;19.05;43.52;100360.39;1786084;80;21222;-65
2022/03/25 09:59:53;;;;;;;3.12;2.83;;;;;;;19.12;43.46;100363.88;1786385;80;21038;-64
2022/03/25 10:02:20;;;;;;;3.70;3.40;;;;;;;19.20;43.45;100362.34;1786605;79;21033;-63
2022/03/25 10:04:48;;;;;;;4.45;4.05;;;;;;;19.28;43.43;100359.95;1795169;80;21063;-65
2022/03/25 10:07:30;;;;;;;3.55;3.25;;;;;;;19.36;43.42;100365.10;1798386;78;21023;-64
2022/03/25 10:10:14;;;;;;;3.77;3.47;;;;;;;19.44;43.35;100362.17;1827947;78;21063;-64
2022/03/25 10:12:44;;;;;;;3.67;3.37;;;;;;;19.52;43.29;100363.81;1827710;78;21020;-64
2022/03/25 10:15:26;;;;;;;3.80;3.50;;;;;;;19.60;43.25;100362.22;1827727;78;20978;-64
2022/03/25 10:17:56;;;;;;;3.80;3.50;;;;;;;19.67;43.23;100358.17;1827981;78;21020;-65
2022/03/25 10:20:29;;;;;;;3.87;3.58;;;;;;;19.75;43.19;100366.05;1827505;78;20969;-64
2022/03/25 10:23:17;;;;;;;3.77;3.47;;;;;;;19.84;43.16;100366.13;1827660;78;21511;-65
2022/03/25 10:25:59;;;;;;;3.15;2.87;;;;;;;19.93;43.10;100363.17;1826400;78;20993;-64
2022/03/25 10:28:36;;;;;;;3.45;3.15;;;;;;;20.01;43.04;100363.77;1819758;78;21015;-64
2022/03/25 10:31:14;;;;;;;3.67;3.37;;;;;;;20.11;43.00;100370.05;1795100;79;21011;-64
2022/03/25 10:33:54;;;;;;;3.50;3.20;;;;;;;20.19;42.94;100367.62;1795431;80;21059;-64
2022/03/25 10:36:21;;;;;;;3.80;3.50;;;;;;;20.28;42.88;100367.68;1794916;80;21145;-64
2022/03/25 10:38:58;;;;;;;3.80;3.50;;;;;;;20.37;42.85;100366.88;1804508;78;21473;-63
2022/03/25 10:41:40;;;;;;;3.50;3.20;;;;;;;20.47;42.78;100367.75;1820886;78;21037;-64
2022/03/25 10:44:10;;;;;;;3.50;3.20;;;;;;;20.55;42.75;100364.28;1794068;80;21015;-64
2022/03/25 10:46:42;;;;;;;3.62;3.33;;;;;;;20.64;42.69;100358.11;1795073;80;21008;-64
2022/03/25 10:49:12;;;;;;;3.30;3.00;;;;;;;20.73;42.68;100362.73;1795326;80;22037;-64
2022/03/25 10:51:42;;;;;;;3.30;3.00;;;;;;;20.82;42.65;100360.03;1794927;80;20988;-64
2022/03/25 10:54:13;;;;;;;3.50;3.20;;;;;;;20.92;42.61;100360.88;1794587;79;21476;-63
2022/03/25 10:56:49;;;;;;;3.80;3.50;;;;;;;21.00;42.57;100366.84;1795003;80;21067;-64
2022/03/25 10:59:29;;;;;;;2.70;2.50;;;;;;;21.10;42.52;100360.13;1795610;78;21012;-64
2022/03/25 11:02:00;;;;;;;2.85;2.65;;;;;;;21.19;42.48;100356.91;1795003;80;21144;-64
2022/03/25 11:04:27;;;;;;;3.40;3.12;;;;;;;21.29;42.43;100363.15;1798785;79;20994;-64
2022/03/25 11:06:54;;;;;;;3.42;3.20;;;;;;;21.37;42.40;100361.50;1799777;78;21030;-64
2022/03/25 11:09:23;;;;;;;3.05;2.85;;;;;;;21.48;42.35;100352.36;1799722;79;21085;-63
2022/03/25 11:11:52;;;;;;;3.33;3.08;;;;;;;21.58;42.30;100356.73;1799717;79;21033;-66
2022/03/25 11:14:20;;;;;;;2.80;2.60;;;;;;;21.67;42.26;100352.69;1799676;79;21034;-65
2022/03/25 11:16:56;;;;;;;3.15;2.85;;;;;;;21.76;42.22;100344.55;1800784;78;21018;-64
2022/03/25 11:19:24;;;;;;;2.90;2.70;;;;;;;21.86;42.17;100352.11;1799742;79;21069;-64
2022/03/25 11:21:51;;;;;;;3.17;2.90;;;;;;;21.95;42.16;100352.11;1799745;79;21084;-65
2022/03/25 11:24:36;;;;;;;2.90;2.70;;;;;;;22.05;42.18;100353.45;1799709;79;21529;-64
2022/03/25 11:27:09;;;;;;;3.08;2.77;;;;;;;22.14;42.14;100359.66;1793168;78;21250;-64
2022/03/25 11:29:35;;;;;;;3.37;3.08;;;;;;;22.25;42.08;100357.25;1822956;78;21006;-63
2022/03/25 11:32:11;;;;;;;3.33;3.10;;;;;;;22.34;41.98;100347.22;1831669;78;21088;-63
2022/03/25 11:34:57;;;;;;;3.70;3.40;;;;;;;22.45;41.92;100345.61;1799789;79;21533;-63
2022/03/25 11:37:28;;;;;;;3.25;3.05;;;;;;;22.54;41.86;100349.64;1799632;79;21044;-64
2022/03/25 11:40:22;;;;;;;2.80;2.60;;;;;;;22.65;41.77;100349.34;1799001;79;21235;-63